sensor_id;sensor_type;location;lat;lon;timestamp;temperature;humidity
25332;DHT22;13284;52.748;13.452;2023-11-18T00:01:34;5.60;99.90
25332;DHT22;13284;52.748;13.452;2023-11-18T00:04:00;5.60;99.90
25332;DHT22;13284;52.748;13.452;2023-11-18T00:06:26;5.60;99.90
25332;DHT22;13284;52.748;13.452;2023-11-18T00:08:51;5.60;99.90
25332;DHT22;13284;52.748;13.452;2023-11-18T00:11:17;5.60;99.90
25332;DHT22;13284;52.748;13.452;2023-11-18T00:13:44;5.60;99.90
25332;DHT22;13284;52.748;13.452;2023-11-18T00:16:10;5.60;99.90
25332;DHT22;13284;52.748;13.452;2023-11-18T00:18:44;5.60;99.90
25332;DHT22;13284;52.748;13.452;2023-11-18T00:21:10;5.60;99.90
25332;DHT22;13284;52.748;13.452;2023-11-18T00:23:35;5.60;99.90
25332;DHT22;13284;52.748;13.452;2023-11-18T00:26:01;5.60;99.90
25332;DHT22;13284;52.748;13.452;2023-11-18T00:28:27;5.60;99.90
25332;DHT22;13284;52.748;13.452;2023-11-18T00:30:53;5.60;99.90
25332;DHT22;13284;52.748;13.452;2023-11-18T00:33:18;5.60;99.90
25332;DHT22;13284;52.748;13.452;2023-11-18T00:35:44;5.60;99.90
25332;DHT22;13284;52.748;13.452;2023-11-18T00:38:10;5.60;99.90
25332;DHT22;13284;52.748;13.452;2023-11-18T00:40:36;5.60;99.90
25332;DHT22;13284;52.748;13.452;2023-11-18T00:43:01;5.60;99.90
25332;DHT22;13284;52.748;13.452;2023-11-18T00:45:28;5.60;99.90
25332;DHT22;13284;52.748;13.452;2023-11-18T00:47:54;5.60;99.90
25332;DHT22;13284;52.748;13.452;2023-11-18T00:50:19;5.70;99.90
25332;DHT22;13284;52.748;13.452;2023-11-18T00:52:45;5.70;99.90
25332;DHT22;13284;52.748;13.452;2023-11-18T00:55:13;5.70;99.90
25332;DHT22;13284;52.748;13.452;2023-11-18T00:57:39;5.70;99.90
25332;DHT22;13284;52.748;13.452;2023-11-18T01:00:07;5.70;99.90
25332;DHT22;13284;52.748;13.452;2023-11-18T01:02:32;5.70;99.90
25332;DHT22;13284;52.748;13.452;2023-11-18T01:04:58;5.70;99.90
25332;DHT22;13284;52.748;13.452;2023-11-18T01:07:23;5.60;99.90
25332;DHT22;13284;52.748;13.452;2023-11-18T01:09:49;5.70;99.90
25332;DHT22;13284;52.748;13.452;2023-11-18T01:12:15;5.70;99.90
25332;DHT22;13284;52.748;13.452;2023-11-18T01:14:40;5.70;99.90
25332;DHT22;13284;52.748;13.452;2023-11-18T01:17:07;5.60;99.90
25332;DHT22;13284;52.748;13.452;2023-11-18T01:19:34;5.60;99.90
25332;DHT22;13284;52.748;13.452;2023-11-18T01:22:00;5.60;99.90
25332;DHT22;13284;52.748;13.452;2023-11-18T01:24:28;5.60;99.90
25332;DHT22;13284;52.748;13.452;2023-11-18T01:26:53;5.50;99.90
25332;DHT22;13284;52.748;13.452;2023-11-18T01:29:19;5.60;99.90
25332;DHT22;13284;52.748;13.452;2023-11-18T01:31:47;5.60;99.90
25332;DHT22;13284;52.748;13.452;2023-11-18T01:34:13;5.60;99.90
25332;DHT22;13284;52.748;13.452;2023-11-18T01:36:38;5.60;99.90
25332;DHT22;13284;52.748;13.452;2023-11-18T01:39:04;5.60;99.90
25332;DHT22;13284;52.748;13.452;2023-11-18T01:41:30;5.60;99.90
25332;DHT22;13284;52.748;13.452;2023-11-18T01:43:57;5.60;99.90
25332;DHT22;13284;52.748;13.452;2023-11-18T01:46:24;5.50;99.90
25332;DHT22;13284;52.748;13.452;2023-11-18T01:48:50;5.60;99.90
25332;DHT22;13284;52.748;13.452;2023-11-18T01:51:16;5.60;99.90
25332;DHT22;13284;52.748;13.452;2023-11-18T01:53:47;5.60;99.90
25332;DHT22;13284;52.748;13.452;2023-11-18T01:56:13;5.60;99.90
25332;DHT22;13284;52.748;13.452;2023-11-18T01:58:40;5.50;99.90
25332;DHT22;13284;52.748;13.452;2023-11-18T02:01:06;5.60;99.90
25332;DHT22;13284;52.748;13.452;2023-11-18T02:03:36;5.50;99.90
25332;DHT22;13284;52.748;13.452;2023-11-18T02:06:04;5.50;99.90
25332;DHT22;13284;52.748;13.452;2023-11-18T02:08:32;5.50;99.90
25332;DHT22;13284;52.748;13.452;2023-11-18T02:14:09;5.50;99.90
25332;DHT22;13284;52.748;13.452;2023-11-18T02:16:39;5.50;99.90
25332;DHT22;13284;52.748;13.452;2023-11-18T02:19:12;5.50;99.90
25332;DHT22;13284;52.748;13.452;2023-11-18T02:21:42;5.50;99.90
25332;DHT22;13284;52.748;13.452;2023-11-18T02:24:09;5.50;99.90
25332;DHT22;13284;52.748;13.452;2023-11-18T02:26:35;5.50;99.90
25332;DHT22;13284;52.748;13.452;2023-11-18T02:29:00;5.50;99.90
25332;DHT22;13284;52.748;13.452;2023-11-18T02:31:31;5.50;99.90
25332;DHT22;13284;52.748;13.452;2023-11-18T02:34:10;5.40;99.90
25332;DHT22;13284;52.748;13.452;2023-11-18T02:36:44;5.40;99.90
25332;DHT22;13284;52.748;13.452;2023-11-18T02:39:39;5.40;99.90
25332;DHT22;13284;52.748;13.452;2023-11-18T02:42:08;5.40;99.90
25332;DHT22;13284;52.748;13.452;2023-11-18T02:44:36;5.40;99.90
25332;DHT22;13284;52.748;13.452;2023-11-18T02:47:03;5.40;99.90
25332;DHT22;13284;52.748;13.452;2023-11-18T02:49:30;5.50;99.90
25332;DHT22;13284;52.748;13.452;2023-11-18T02:51:56;5.50;99.90
25332;DHT22;13284;52.748;13.452;2023-11-18T02:54:22;5.50;99.90
25332;DHT22;13284;52.748;13.452;2023-11-18T02:56:48;5.40;99.90
25332;DHT22;13284;52.748;13.452;2023-11-18T02:59:14;5.40;99.90
25332;DHT22;13284;52.748;13.452;2023-11-18T03:01:40;5.50;99.90
25332;DHT22;13284;52.748;13.452;2023-11-18T03:04:06;5.50;99.90
25332;DHT22;13284;52.748;13.452;2023-11-18T03:06:31;5.50;99.90
25332;DHT22;13284;52.748;13.452;2023-11-18T03:09:01;5.50;99.90
25332;DHT22;13284;52.748;13.452;2023-11-18T03:11:28;5.40;99.90
25332;DHT22;13284;52.748;13.452;2023-11-18T03:13:56;5.50;99.90
25332;DHT22;13284;52.748;13.452;2023-11-18T03:16:22;5.50;99.90
25332;DHT22;13284;52.748;13.452;2023-11-18T03:18:50;5.60;99.90
25332;DHT22;13284;52.748;13.452;2023-11-18T03:21:15;5.60;99.90
25332;DHT22;13284;52.748;13.452;2023-11-18T03:23:41;5.60;99.90
25332;DHT22;13284;52.748;13.452;2023-11-18T03:26:08;5.60;99.90
25332;DHT22;13284;52.748;13.452;2023-11-18T03:28:34;5.60;99.90
25332;DHT22;13284;52.748;13.452;2023-11-18T03:31:04;5.60;99.90
25332;DHT22;13284;52.748;13.452;2023-11-18T03:33:30;5.60;99.90
25332;DHT22;13284;52.748;13.452;2023-11-18T03:35:56;5.70;99.90
25332;DHT22;13284;52.748;13.452;2023-11-18T03:38:22;5.60;99.90
25332;DHT22;13284;52.748;13.452;2023-11-18T03:40:47;5.60;99.90
25332;DHT22;13284;52.748;13.452;2023-11-18T03:43:13;5.60;99.90
25332;DHT22;13284;52.748;13.452;2023-11-18T03:45:39;5.70;99.90
25332;DHT22;13284;52.748;13.452;2023-11-18T03:48:06;5.70;99.90
25332;DHT22;13284;52.748;13.452;2023-11-18T03:50:33;5.70;99.90
25332;DHT22;13284;52.748;13.452;2023-11-18T03:52:58;5.70;99.90
25332;DHT22;13284;52.748;13.452;2023-11-18T03:55:24;5.60;99.90
25332;DHT22;13284;52.748;13.452;2023-11-18T03:57:51;5.60;99.90
25332;DHT22;13284;52.748;13.452;2023-11-18T04:00:17;5.60;99.90
25332;DHT22;13284;52.748;13.452;2023-11-18T04:02:45;5.60;99.90
25332;DHT22;13284;52.748;13.452;2023-11-18T04:05:11;5.60;99.90
25332;DHT22;13284;52.748;13.452;2023-11-18T04:07:37;5.50;99.90
25332;DHT22;13284;52.748;13.452;2023-11-18T04:10:03;5.60;99.90
25332;DHT22;13284;52.748;13.452;2023-11-18T04:12:32;5.50;99.90
25332;DHT22;13284;52.748;13.452;2023-11-18T04:14:57;5.50;99.90
25332;DHT22;13284;52.748;13.452;2023-11-18T04:17:23;5.50;99.90
25332;DHT22;13284;52.748;13.452;2023-11-18T04:19:48;5.50;99.90
25332;DHT22;13284;52.748;13.452;2023-11-18T04:22:14;5.50;99.90
25332;DHT22;13284;52.748;13.452;2023-11-18T04:24:39;5.50;99.90
25332;DHT22;13284;52.748;13.452;2023-11-18T04:27:05;5.60;99.90
25332;DHT22;13284;52.748;13.452;2023-11-18T04:29:30;5.60;99.90
25332;DHT22;13284;52.748;13.452;2023-11-18T04:31:56;5.50;99.90
25332;DHT22;13284;52.748;13.452;2023-11-18T04:34:21;5.60;99.90
25332;DHT22;13284;52.748;13.452;2023-11-18T04:36:47;5.50;99.90
25332;DHT22;13284;52.748;13.452;2023-11-18T04:39:12;5.60;99.90
25332;DHT22;13284;52.748;13.452;2023-11-18T04:41:38;5.60;99.90
25332;DHT22;13284;52.748;13.452;2023-11-18T04:44:03;5.60;99.90
25332;DHT22;13284;52.748;13.452;2023-11-18T04:46:29;5.50;99.90
25332;DHT22;13284;52.748;13.452;2023-11-18T04:48:54;5.40;99.90
25332;DHT22;13284;52.748;13.452;2023-11-18T04:51:21;5.50;99.90
25332;DHT22;13284;52.748;13.452;2023-11-18T04:53:47;5.50;99.90
25332;DHT22;13284;52.748;13.452;2023-11-18T04:56:13;5.50;99.90
25332;DHT22;13284;52.748;13.452;2023-11-18T04:58:42;5.50;99.90
25332;DHT22;13284;52.748;13.452;2023-11-18T05:01:08;5.50;99.90
25332;DHT22;13284;52.748;13.452;2023-11-18T05:03:34;5.40;99.90
25332;DHT22;13284;52.748;13.452;2023-11-18T05:06:00;5.40;99.90
25332;DHT22;13284;52.748;13.452;2023-11-18T05:08:26;5.40;99.90
25332;DHT22;13284;52.748;13.452;2023-11-18T05:10:51;5.40;99.90
25332;DHT22;13284;52.748;13.452;2023-11-18T05:13:17;5.30;99.90
25332;DHT22;13284;52.748;13.452;2023-11-18T05:15:44;5.40;99.90
25332;DHT22;13284;52.748;13.452;2023-11-18T05:18:13;5.40;99.90
25332;DHT22;13284;52.748;13.452;2023-11-18T05:20:40;5.40;99.90
25332;DHT22;13284;52.748;13.452;2023-11-18T05:23:06;5.40;99.90
25332;DHT22;13284;52.748;13.452;2023-11-18T05:25:41;5.40;99.90
25332;DHT22;13284;52.748;13.452;2023-11-18T05:28:08;5.40;99.90
25332;DHT22;13284;52.748;13.452;2023-11-18T05:30:38;5.30;99.90
25332;DHT22;13284;52.748;13.452;2023-11-18T05:33:04;5.40;99.90
25332;DHT22;13284;52.748;13.452;2023-11-18T05:35:34;5.40;99.90
25332;DHT22;13284;52.748;13.452;2023-11-18T05:38:00;5.30;99.90
25332;DHT22;13284;52.748;13.452;2023-11-18T05:40:28;5.30;99.90
25332;DHT22;13284;52.748;13.452;2023-11-18T05:42:54;5.40;99.90
25332;DHT22;13284;52.748;13.452;2023-11-18T05:45:20;5.30;99.90
25332;DHT22;13284;52.748;13.452;2023-11-18T05:48:02;5.20;99.90
25332;DHT22;13284;52.748;13.452;2023-11-18T05:50:28;5.20;99.90
25332;DHT22;13284;52.748;13.452;2023-11-18T05:52:54;5.10;99.90
25332;DHT22;13284;52.748;13.452;2023-11-18T05:55:20;5.10;99.90
25332;DHT22;13284;52.748;13.452;2023-11-18T05:57:46;5.10;99.90
25332;DHT22;13284;52.748;13.452;2023-11-18T06:00:13;5.10;99.90
25332;DHT22;13284;52.748;13.452;2023-11-18T06:02:41;5.00;99.90
25332;DHT22;13284;52.748;13.452;2023-11-18T06:05:08;4.90;99.90
25332;DHT22;13284;52.748;13.452;2023-11-18T06:07:33;4.80;99.90
25332;DHT22;13284;52.748;13.452;2023-11-18T06:10:00;4.80;99.90
25332;DHT22;13284;52.748;13.452;2023-11-18T06:12:27;4.70;99.90
25332;DHT22;13284;52.748;13.452;2023-11-18T06:14:52;4.70;99.90
25332;DHT22;13284;52.748;13.452;2023-11-18T06:17:18;4.60;99.90
25332;DHT22;13284;52.748;13.452;2023-11-18T06:19:44;4.60;99.90
25332;DHT22;13284;52.748;13.452;2023-11-18T06:22:10;4.50;99.90
25332;DHT22;13284;52.748;13.452;2023-11-18T06:24:36;4.50;99.90
25332;DHT22;13284;52.748;13.452;2023-11-18T06:27:01;4.50;99.90
25332;DHT22;13284;52.748;13.452;2023-11-18T06:29:27;4.50;99.90
25332;DHT22;13284;52.748;13.452;2023-11-18T06:31:54;4.50;99.90
25332;DHT22;13284;52.748;13.452;2023-11-18T06:34:20;4.50;99.90
25332;DHT22;13284;52.748;13.452;2023-11-18T06:36:46;4.50;99.90
25332;DHT22;13284;52.748;13.452;2023-11-18T06:39:11;4.50;99.90
25332;DHT22;13284;52.748;13.452;2023-11-18T06:41:38;4.50;99.90
25332;DHT22;13284;52.748;13.452;2023-11-18T06:44:14;4.50;99.90
25332;DHT22;13284;52.748;13.452;2023-11-18T06:46:43;4.60;99.90
25332;DHT22;13284;52.748;13.452;2023-11-18T06:49:09;4.50;99.90
25332;DHT22;13284;52.748;13.452;2023-11-18T06:51:41;4.50;99.90
25332;DHT22;13284;52.748;13.452;2023-11-18T06:54:07;4.60;99.90
25332;DHT22;13284;52.748;13.452;2023-11-18T06:56:39;4.50;99.90
25332;DHT22;13284;52.748;13.452;2023-11-18T06:59:08;4.50;99.90
25332;DHT22;13284;52.748;13.452;2023-11-18T07:01:35;4.50;99.90
25332;DHT22;13284;52.748;13.452;2023-11-18T07:04:01;4.50;99.90
25332;DHT22;13284;52.748;13.452;2023-11-18T07:06:26;4.60;99.90
25332;DHT22;13284;52.748;13.452;2023-11-18T07:08:53;4.50;99.90
25332;DHT22;13284;52.748;13.452;2023-11-18T07:11:20;4.60;99.90
25332;DHT22;13284;52.748;13.452;2023-11-18T07:13:47;4.50;99.90
25332;DHT22;13284;52.748;13.452;2023-11-18T07:16:13;4.60;99.90
25332;DHT22;13284;52.748;13.452;2023-11-18T07:18:40;4.60;99.90
25332;DHT22;13284;52.748;13.452;2023-11-18T07:21:07;4.60;99.90
25332;DHT22;13284;52.748;13.452;2023-11-18T07:23:34;4.60;99.90
25332;DHT22;13284;52.748;13.452;2023-11-18T07:26:01;4.60;99.90
25332;DHT22;13284;52.748;13.452;2023-11-18T07:28:27;4.60;99.90
25332;DHT22;13284;52.748;13.452;2023-11-18T07:30:53;4.60;99.90
25332;DHT22;13284;52.748;13.452;2023-11-18T07:33:19;4.70;99.90
25332;DHT22;13284;52.748;13.452;2023-11-18T07:35:47;4.80;99.90
25332;DHT22;13284;52.748;13.452;2023-11-18T07:38:14;4.90;99.90
25332;DHT22;13284;52.748;13.452;2023-11-18T07:40:40;4.80;99.90
25332;DHT22;13284;52.748;13.452;2023-11-18T07:43:14;4.80;99.90
25332;DHT22;13284;52.748;13.452;2023-11-18T07:45:40;4.80;99.90
25332;DHT22;13284;52.748;13.452;2023-11-18T07:48:08;4.90;99.90
25332;DHT22;13284;52.748;13.452;2023-11-18T07:50:38;4.90;99.90
25332;DHT22;13284;52.748;13.452;2023-11-18T07:53:05;4.90;99.90
25332;DHT22;13284;52.748;13.452;2023-11-18T07:55:32;5.00;99.90
25332;DHT22;13284;52.748;13.452;2023-11-18T07:58:00;5.00;99.90
25332;DHT22;13284;52.748;13.452;2023-11-18T08:00:27;5.10;99.90
25332;DHT22;13284;52.748;13.452;2023-11-18T08:02:56;5.10;99.90
25332;DHT22;13284;52.748;13.452;2023-11-18T08:05:23;5.20;99.90
25332;DHT22;13284;52.748;13.452;2023-11-18T08:07:50;5.20;99.90
25332;DHT22;13284;52.748;13.452;2023-11-18T08:10:16;5.30;99.90
25332;DHT22;13284;52.748;13.452;2023-11-18T08:12:44;5.40;99.90
25332;DHT22;13284;52.748;13.452;2023-11-18T08:15:10;5.50;99.90
25332;DHT22;13284;52.748;13.452;2023-11-18T08:17:36;5.60;99.90
25332;DHT22;13284;52.748;13.452;2023-11-18T08:20:02;5.60;99.90
25332;DHT22;13284;52.748;13.452;2023-11-18T08:22:41;5.60;99.90
25332;DHT22;13284;52.748;13.452;2023-11-18T08:25:11;5.70;99.90
25332;DHT22;13284;52.748;13.452;2023-11-18T08:27:41;5.80;99.90
25332;DHT22;13284;52.748;13.452;2023-11-18T08:30:08;5.70;99.90
25332;DHT22;13284;52.748;13.452;2023-11-18T08:32:37;5.70;99.90
25332;DHT22;13284;52.748;13.452;2023-11-18T08:35:06;5.80;99.90
25332;DHT22;13284;52.748;13.452;2023-11-18T08:37:33;5.90;99.90
25332;DHT22;13284;52.748;13.452;2023-11-18T08:40:02;5.90;99.90
25332;DHT22;13284;52.748;13.452;2023-11-18T08:42:28;6.00;99.90
25332;DHT22;13284;52.748;13.452;2023-11-18T08:44:57;6.00;99.90
25332;DHT22;13284;52.748;13.452;2023-11-18T08:47:24;5.80;99.90
25332;DHT22;13284;52.748;13.452;2023-11-18T08:49:50;5.90;99.90
25332;DHT22;13284;52.748;13.452;2023-11-18T08:52:16;6.00;99.90
25332;DHT22;13284;52.748;13.452;2023-11-18T08:54:43;6.10;99.90
25332;DHT22;13284;52.748;13.452;2023-11-18T08:57:29;6.20;99.90
25332;DHT22;13284;52.748;13.452;2023-11-18T09:00:18;6.30;99.90
25332;DHT22;13284;52.748;13.452;2023-11-18T09:03:07;6.40;99.90
25332;DHT22;13284;52.748;13.452;2023-11-18T09:05:36;6.50;99.90
25332;DHT22;13284;52.748;13.452;2023-11-18T09:08:04;6.70;99.90
25332;DHT22;13284;52.748;13.452;2023-11-18T09:10:31;6.70;99.90
25332;DHT22;13284;52.748;13.452;2023-11-18T09:12:56;6.70;99.90
25332;DHT22;13284;52.748;13.452;2023-11-18T09:15:22;6.80;99.90
25332;DHT22;13284;52.748;13.452;2023-11-18T09:17:59;6.80;99.90
25332;DHT22;13284;52.748;13.452;2023-11-18T09:20:25;6.70;99.90
25332;DHT22;13284;52.748;13.452;2023-11-18T09:22:52;6.80;99.90
25332;DHT22;13284;52.748;13.452;2023-11-18T09:25:21;6.90;99.90
25332;DHT22;13284;52.748;13.452;2023-11-18T09:27:50;6.90;99.90
25332;DHT22;13284;52.748;13.452;2023-11-18T09:30:18;7.00;99.90
25332;DHT22;13284;52.748;13.452;2023-11-18T09:32:44;6.80;99.90
25332;DHT22;13284;52.748;13.452;2023-11-18T09:35:13;6.90;99.90
25332;DHT22;13284;52.748;13.452;2023-11-18T09:37:39;6.80;99.90
25332;DHT22;13284;52.748;13.452;2023-11-18T09:40:13;6.90;99.90
25332;DHT22;13284;52.748;13.452;2023-11-18T09:42:40;7.00;99.90
25332;DHT22;13284;52.748;13.452;2023-11-18T09:45:08;6.90;99.90
25332;DHT22;13284;52.748;13.452;2023-11-18T09:47:43;7.00;99.90
25332;DHT22;13284;52.748;13.452;2023-11-18T09:50:14;6.90;99.90
25332;DHT22;13284;52.748;13.452;2023-11-18T09:52:48;6.90;99.90
25332;DHT22;13284;52.748;13.452;2023-11-18T09:55:35;6.90;99.90
25332;DHT22;13284;52.748;13.452;2023-11-18T09:58:11;6.90;99.90
25332;DHT22;13284;52.748;13.452;2023-11-18T10:00:45;7.00;99.90
25332;DHT22;13284;52.748;13.452;2023-11-18T10:04:28;7.10;99.90
25332;DHT22;13284;52.748;13.452;2023-11-18T10:06:54;7.20;99.90
25332;DHT22;13284;52.748;13.452;2023-11-18T10:09:23;7.10;99.90
25332;DHT22;13284;52.748;13.452;2023-11-18T10:12:03;7.10;99.90
25332;DHT22;13284;52.748;13.452;2023-11-18T10:14:35;6.90;99.90
25332;DHT22;13284;52.748;13.452;2023-11-18T10:17:10;6.90;99.90
25332;DHT22;13284;52.748;13.452;2023-11-18T10:19:56;6.90;99.90
25332;DHT22;13284;52.748;13.452;2023-11-18T10:22:23;7.10;99.90
25332;DHT22;13284;52.748;13.452;2023-11-18T10:24:49;7.20;99.90
25332;DHT22;13284;52.748;13.452;2023-11-18T10:27:15;7.20;99.90
25332;DHT22;13284;52.748;13.452;2023-11-18T10:29:41;7.10;99.90
25332;DHT22;13284;52.748;13.452;2023-11-18T10:32:10;7.30;99.90
25332;DHT22;13284;52.748;13.452;2023-11-18T10:34:44;7.30;99.90
25332;DHT22;13284;52.748;13.452;2023-11-18T10:37:10;7.50;99.90
25332;DHT22;13284;52.748;13.452;2023-11-18T10:39:36;7.40;99.90
25332;DHT22;13284;52.748;13.452;2023-11-18T10:42:02;7.50;99.90
25332;DHT22;13284;52.748;13.452;2023-11-18T10:44:34;7.70;99.90
25332;DHT22;13284;52.748;13.452;2023-11-18T10:47:03;7.70;99.90
25332;DHT22;13284;52.748;13.452;2023-11-18T10:49:29;7.50;99.90
25332;DHT22;13284;52.748;13.452;2023-11-18T10:52:02;7.50;99.90
25332;DHT22;13284;52.748;13.452;2023-11-18T10:54:28;7.50;99.90
25332;DHT22;13284;52.748;13.452;2023-11-18T10:57:01;7.10;99.90
25332;DHT22;13284;52.748;13.452;2023-11-18T10:59:32;7.00;99.90
25332;DHT22;13284;52.748;13.452;2023-11-18T11:02:01;7.00;99.90
25332;DHT22;13284;52.748;13.452;2023-11-18T11:04:43;6.90;99.90
25332;DHT22;13284;52.748;13.452;2023-11-18T11:07:14;7.00;99.90
25332;DHT22;13284;52.748;13.452;2023-11-18T11:09:40;6.80;99.90
25332;DHT22;13284;52.748;13.452;2023-11-18T11:12:20;6.80;99.90
25332;DHT22;13284;52.748;13.452;2023-11-18T11:15:01;6.80;99.90
25332;DHT22;13284;52.748;13.452;2023-11-18T11:17:32;6.90;99.90
25332;DHT22;13284;52.748;13.452;2023-11-18T11:20:06;6.90;99.90
25332;DHT22;13284;52.748;13.452;2023-11-18T11:23:05;6.80;99.90
25332;DHT22;13284;52.748;13.452;2023-11-18T11:28:22;7.00;99.90
25332;DHT22;13284;52.748;13.452;2023-11-18T11:31:17;7.20;99.90
25332;DHT22;13284;52.748;13.452;2023-11-18T11:33:57;7.00;99.90
25332;DHT22;13284;52.748;13.452;2023-11-18T11:36:37;7.10;99.90
25332;DHT22;13284;52.748;13.452;2023-11-18T11:39:07;7.10;99.90
25332;DHT22;13284;52.748;13.452;2023-11-18T11:41:50;7.20;99.90
25332;DHT22;13284;52.748;13.452;2023-11-18T11:44:17;7.20;99.90
25332;DHT22;13284;52.748;13.452;2023-11-18T11:46:46;7.40;99.90
25332;DHT22;13284;52.748;13.452;2023-11-18T11:49:20;7.30;99.90
25332;DHT22;13284;52.748;13.452;2023-11-18T11:51:49;7.20;99.90
25332;DHT22;13284;52.748;13.452;2023-11-18T11:54:27;7.30;99.90
25332;DHT22;13284;52.748;13.452;2023-11-18T11:56:56;7.40;99.90
25332;DHT22;13284;52.748;13.452;2023-11-18T12:02:15;7.50;99.90
25332;DHT22;13284;52.748;13.452;2023-11-18T12:04:49;7.50;99.90
25332;DHT22;13284;52.748;13.452;2023-11-18T12:07:20;7.40;99.90
25332;DHT22;13284;52.748;13.452;2023-11-18T12:09:50;7.40;99.90
25332;DHT22;13284;52.748;13.452;2023-11-18T12:12:20;7.40;99.90
25332;DHT22;13284;52.748;13.452;2023-11-18T12:14:53;7.50;99.90
25332;DHT22;13284;52.748;13.452;2023-11-18T12:17:22;7.60;99.90
25332;DHT22;13284;52.748;13.452;2023-11-18T12:19:51;7.60;99.90
25332;DHT22;13284;52.748;13.452;2023-11-18T12:22:24;7.40;99.90
25332;DHT22;13284;52.748;13.452;2023-11-18T12:27:43;7.40;99.90
25332;DHT22;13284;52.748;13.452;2023-11-18T12:32:58;7.20;99.90
25332;DHT22;13284;52.748;13.452;2023-11-18T12:41:33;8.10;99.90
25332;DHT22;13284;52.748;13.452;2023-11-18T12:46:54;8.10;99.90
25332;DHT22;13284;52.748;13.452;2023-11-18T12:49:21;8.00;99.90
25332;DHT22;13284;52.748;13.452;2023-11-18T12:51:54;8.10;99.90
25332;DHT22;13284;52.748;13.452;2023-11-18T12:54:26;7.90;99.90
25332;DHT22;13284;52.748;13.452;2023-11-18T12:56:55;7.60;99.90
25332;DHT22;13284;52.748;13.452;2023-11-18T12:59:20;7.50;99.90
25332;DHT22;13284;52.748;13.452;2023-11-18T13:01:52;7.50;99.90
25332;DHT22;13284;52.748;13.452;2023-11-18T13:04:24;7.60;99.90
25332;DHT22;13284;52.748;13.452;2023-11-18T13:06:52;7.70;99.90
25332;DHT22;13284;52.748;13.452;2023-11-18T13:09:26;7.70;99.90
25332;DHT22;13284;52.748;13.452;2023-11-18T13:12:04;7.70;99.90
25332;DHT22;13284;52.748;13.452;2023-11-18T13:14:32;7.50;99.90
25332;DHT22;13284;52.748;13.452;2023-11-18T13:17:25;7.20;99.90
25332;DHT22;13284;52.748;13.452;2023-11-18T13:19:53;6.90;99.90
25332;DHT22;13284;52.748;13.452;2023-11-18T13:22:19;6.90;99.90
25332;DHT22;13284;52.748;13.452;2023-11-18T13:24:48;6.90;99.90
25332;DHT22;13284;52.748;13.452;2023-11-18T13:27:16;7.20;99.90
25332;DHT22;13284;52.748;13.452;2023-11-18T13:29:46;7.20;99.90
25332;DHT22;13284;52.748;13.452;2023-11-18T13:32:21;7.40;99.90
25332;DHT22;13284;52.748;13.452;2023-11-18T13:34:51;7.60;99.90
25332;DHT22;13284;52.748;13.452;2023-11-18T13:37:22;7.70;99.90
25332;DHT22;13284;52.748;13.452;2023-11-18T13:39:55;7.60;99.90
25332;DHT22;13284;52.748;13.452;2023-11-18T13:42:25;7.80;99.90
25332;DHT22;13284;52.748;13.452;2023-11-18T13:45:02;7.70;99.90
25332;DHT22;13284;52.748;13.452;2023-11-18T13:47:33;7.80;99.90
25332;DHT22;13284;52.748;13.452;2023-11-18T13:49:59;7.60;99.90
25332;DHT22;13284;52.748;13.452;2023-11-18T13:52:25;7.50;99.90
25332;DHT22;13284;52.748;13.452;2023-11-18T13:54:51;7.60;99.90
25332;DHT22;13284;52.748;13.452;2023-11-18T13:57:22;7.50;99.90
25332;DHT22;13284;52.748;13.452;2023-11-18T13:59:52;7.30;99.90
25332;DHT22;13284;52.748;13.452;2023-11-18T14:02:19;7.10;99.90
25332;DHT22;13284;52.748;13.452;2023-11-18T14:04:46;6.80;99.90
25332;DHT22;13284;52.748;13.452;2023-11-18T14:07:17;6.60;99.90
25332;DHT22;13284;52.748;13.452;2023-11-18T14:09:49;6.40;99.90
25332;DHT22;13284;52.748;13.452;2023-11-18T14:12:16;6.30;99.90
25332;DHT22;13284;52.748;13.452;2023-11-18T14:14:44;6.20;99.90
25332;DHT22;13284;52.748;13.452;2023-11-18T14:17:10;6.20;99.90
25332;DHT22;13284;52.748;13.452;2023-11-18T14:19:45;6.10;99.90
25332;DHT22;13284;52.748;13.452;2023-11-18T14:22:11;6.00;99.90
25332;DHT22;13284;52.748;13.452;2023-11-18T14:24:36;6.10;99.90
25332;DHT22;13284;52.748;13.452;2023-11-18T14:27:02;5.80;99.90
25332;DHT22;13284;52.748;13.452;2023-11-18T14:29:32;5.70;99.90
25332;DHT22;13284;52.748;13.452;2023-11-18T14:31:58;5.60;99.90
25332;DHT22;13284;52.748;13.452;2023-11-18T14:34:24;5.60;99.90
25332;DHT22;13284;52.748;13.452;2023-11-18T14:36:49;5.50;99.90
25332;DHT22;13284;52.748;13.452;2023-11-18T14:39:15;5.40;99.90
25332;DHT22;13284;52.748;13.452;2023-11-18T14:41:47;5.20;99.90
25332;DHT22;13284;52.748;13.452;2023-11-18T14:44:13;5.10;99.90
25332;DHT22;13284;52.748;13.452;2023-11-18T14:46:39;4.90;99.90
25332;DHT22;13284;52.748;13.452;2023-11-18T14:49:08;4.80;99.90
25332;DHT22;13284;52.748;13.452;2023-11-18T14:51:38;4.70;99.90
25332;DHT22;13284;52.748;13.452;2023-11-18T14:54:04;4.70;99.90
25332;DHT22;13284;52.748;13.452;2023-11-18T14:56:31;4.60;99.90
25332;DHT22;13284;52.748;13.452;2023-11-18T14:58:56;4.50;99.90
25332;DHT22;13284;52.748;13.452;2023-11-18T15:01:32;4.50;99.90
25332;DHT22;13284;52.748;13.452;2023-11-18T15:03:58;4.40;99.90
25332;DHT22;13284;52.748;13.452;2023-11-18T15:06:27;4.30;99.90
25332;DHT22;13284;52.748;13.452;2023-11-18T15:08:54;4.20;99.90
25332;DHT22;13284;52.748;13.452;2023-11-18T15:11:22;4.20;99.90
25332;DHT22;13284;52.748;13.452;2023-11-18T15:13:49;4.10;99.90
25332;DHT22;13284;52.748;13.452;2023-11-18T15:16:17;4.00;99.90
25332;DHT22;13284;52.748;13.452;2023-11-18T15:18:44;4.00;99.90
25332;DHT22;13284;52.748;13.452;2023-11-18T15:21:12;3.90;99.90
25332;DHT22;13284;52.748;13.452;2023-11-18T15:23:40;3.90;99.90
25332;DHT22;13284;52.748;13.452;2023-11-18T15:26:10;3.90;99.90
25332;DHT22;13284;52.748;13.452;2023-11-18T15:28:39;3.90;99.90
25332;DHT22;13284;52.748;13.452;2023-11-18T15:31:04;3.90;99.90
25332;DHT22;13284;52.748;13.452;2023-11-18T15:33:30;4.10;99.90
25332;DHT22;13284;52.748;13.452;2023-11-18T15:35:56;4.10;99.90
25332;DHT22;13284;52.748;13.452;2023-11-18T15:38:22;4.20;99.90
25332;DHT22;13284;52.748;13.452;2023-11-18T15:40:48;4.20;99.90
25332;DHT22;13284;52.748;13.452;2023-11-18T15:43:15;4.20;99.90
25332;DHT22;13284;52.748;13.452;2023-11-18T15:45:42;4.20;99.90
25332;DHT22;13284;52.748;13.452;2023-11-18T15:48:10;4.20;99.90
25332;DHT22;13284;52.748;13.452;2023-11-18T15:50:36;4.10;99.90
25332;DHT22;13284;52.748;13.452;2023-11-18T15:53:05;4.10;99.90
25332;DHT22;13284;52.748;13.452;2023-11-18T15:55:31;4.00;99.90
25332;DHT22;13284;52.748;13.452;2023-11-18T15:57:57;3.90;99.90
25332;DHT22;13284;52.748;13.452;2023-11-18T16:00:27;3.90;99.90
25332;DHT22;13284;52.748;13.452;2023-11-18T16:02:53;3.90;99.90